Ada, South Dakota
Current Conditions -  °F | °C
As of 9:53 AM on Saturday 20 Dec 2014 (Local Time) from KHEI Reporting Station
Overcast Overcast  
Wind Chill: -1°   Ceiling: 12000
Heat Index:   Visibility: 10mi
Dew Point: -3°   Wind: 7mph
Humidity: 70%   Direction: 280°W
Pressure: 29.88"   Gusts: NA
Location:  45.5161°N, 102.519°W
Report Text: KHEI 201653Z AUTO 28006KT 10SM OVC120 02/M03 A2988 RMK AO2 SLP148 T00221028
Loading
Personal Weather Stations






























Interactive Weather Map New forecast layout! Learn more

10-Day Weather Forecast

Advertisements
Track Severe Weather on mobile